createdAt,value
2022-11-04T00:00:29.862Z,1.40
2022-11-04T00:02:57.710Z,1.83
2022-11-04T00:05:24.953Z,2.13
2022-11-04T00:08:10.789Z,1.52
2022-11-04T00:10:56.794Z,1.60
2022-11-04T00:13:24.043Z,1.20
2022-11-04T00:16:10.250Z,1.45
2022-11-04T00:18:37.520Z,2.00
2022-11-04T00:21:23.168Z,1.35
2022-11-04T00:24:08.935Z,1.55
2022-11-04T00:26:54.977Z,1.40
2022-11-04T00:29:22.216Z,1.58
2022-11-04T00:32:08.036Z,1.95
2022-11-04T00:34:35.316Z,1.50
2022-11-04T00:37:03.161Z,1.92
2022-11-04T00:39:30.919Z,1.67
2022-11-04T00:41:58.119Z,1.95
2022-11-04T00:44:25.371Z,1.88
2022-11-04T00:46:52.640Z,2.30
2022-11-04T00:49:19.931Z,1.90
2022-11-04T00:51:47.212Z,1.90
2022-11-04T00:54:14.534Z,1.80
2022-11-04T00:56:42.025Z,2.00
2022-11-04T00:59:11.849Z,2.10
2022-11-04T01:01:42.395Z,1.80
2022-11-04T01:04:10.086Z,1.10
2022-11-04T01:06:37.357Z,1.83
2022-11-04T01:09:06.740Z,1.88
2022-11-04T01:11:34.025Z,1.40
2022-11-04T01:14:01.749Z,1.52
2022-11-04T01:16:29.360Z,1.60
2022-11-04T01:18:57.140Z,1.40
2022-11-04T01:21:24.368Z,1.60
2022-11-04T01:23:51.592Z,1.35
2022-11-04T01:26:23.303Z,1.70
2022-11-04T01:28:51.771Z,1.03
2022-11-04T01:31:23.404Z,1.50
2022-11-04T01:33:51.484Z,1.08
2022-11-04T01:36:19.248Z,0.98
2022-11-04T01:38:46.514Z,1.90
2022-11-04T01:41:21.106Z,1.00
2022-11-04T01:43:56.108Z,1.20
2022-11-04T01:46:37.573Z,1.40
2022-11-04T01:49:23.278Z,1.40
2022-11-04T01:51:52.743Z,1.52
2022-11-04T01:54:20.385Z,1.10
2022-11-04T01:56:48.717Z,1.50
2022-11-04T01:59:19.717Z,1.30
2022-11-04T02:01:47.205Z,0.93
2022-11-04T02:04:27.052Z,1.58
2022-11-04T02:06:58.367Z,1.00
2022-11-04T02:09:26.958Z,1.52
2022-11-04T02:12:12.993Z,1.45
2022-11-04T02:14:41.215Z,1.30
2022-11-04T02:17:20.626Z,1.45
2022-11-04T02:20:12.816Z,0.83
2022-11-04T02:22:43.098Z,1.17
2022-11-04T02:25:33.757Z,1.40
2022-11-04T02:28:00.959Z,1.08
2022-11-04T02:30:33.880Z,1.35
2022-11-04T02:33:19.063Z,1.20
2022-11-04T02:35:55.283Z,1.60
2022-11-04T02:38:30.688Z,1.40
2022-11-04T02:41:03.824Z,1.45
2022-11-04T02:43:54.009Z,1.20
2022-11-04T02:46:30.381Z,1.63
2022-11-04T02:48:58.103Z,1.10
2022-11-04T02:51:45.631Z,1.40
2022-11-04T02:54:27.689Z,1.58
2022-11-04T02:56:56.924Z,1.58
2022-11-04T02:59:27.704Z,1.70
2022-11-04T03:01:57.019Z,1.40
2022-11-04T03:04:32.318Z,1.92
2022-11-04T03:07:01.226Z,1.75
2022-11-04T03:09:29.683Z,2.10
2022-11-04T03:11:58.990Z,1.70
2022-11-04T03:14:35.289Z,2.13
2022-11-04T03:17:05.467Z,1.90
2022-11-04T03:19:47.967Z,2.22
2022-11-04T03:22:18.009Z,2.05
2022-11-04T03:24:46.355Z,1.60
2022-11-04T03:27:22.900Z,2.05
2022-11-04T03:30:02.192Z,1.98
2022-11-04T03:32:47.941Z,2.00
2022-11-04T03:35:17.119Z,2.30
2022-11-04T03:37:44.953Z,2.43
2022-11-04T03:40:13.206Z,2.50
2022-11-04T03:42:44.462Z,2.70
2022-11-04T03:45:11.977Z,3.20
2022-11-04T03:47:39.255Z,3.42
2022-11-04T03:50:11.944Z,3.13
2022-11-04T03:52:39.513Z,3.20
2022-11-04T03:55:07.531Z,3.13
2022-11-04T03:57:40.990Z,3.30
2022-11-04T04:00:10.153Z,3.85
2022-11-04T04:02:46.215Z,4.03
2022-11-04T04:05:33.763Z,3.95
2022-11-04T04:08:04.155Z,5.60
2022-11-04T04:10:41.048Z,5.18
2022-11-04T04:13:18.883Z,5.82
2022-11-04T04:15:46.121Z,6.00
2022-11-04T04:18:14.931Z,5.90
2022-11-04T04:20:43.611Z,6.38
2022-11-04T04:23:32.991Z,5.68
2022-11-04T04:26:20.038Z,6.13
2022-11-04T04:28:47.656Z,6.40
2022-11-04T04:31:39.357Z,5.68
2022-11-04T04:34:07.065Z,6.32
2022-11-04T04:36:39.131Z,6.85
2022-11-04T04:39:40.183Z,7.38
2022-11-04T04:42:27.021Z,6.57
2022-11-04T04:45:03.715Z,7.07
2022-11-04T04:47:33.349Z,7.43
2022-11-04T04:50:01.192Z,7.35
2022-11-04T04:52:30.831Z,8.55
2022-11-04T04:54:58.166Z,7.47
2022-11-04T04:57:25.794Z,7.95
2022-11-04T04:59:53.002Z,9.18
2022-11-04T05:02:20.366Z,8.73
2022-11-04T05:04:47.805Z,8.65
2022-11-04T05:07:15.190Z,8.87
2022-11-04T05:09:42.595Z,8.48
2022-11-04T05:12:10.185Z,7.95
2022-11-04T05:14:37.464Z,8.25
2022-11-04T05:17:05.178Z,8.70
2022-11-04T05:19:32.515Z,8.63
2022-11-04T05:22:00.096Z,7.85
2022-11-04T05:24:27.508Z,8.30
2022-11-04T05:26:54.845Z,8.63
2022-11-04T05:29:22.169Z,9.15
2022-11-04T05:31:49.478Z,8.77
2022-11-04T05:34:16.870Z,8.75
2022-11-04T05:36:44.187Z,9.35
2022-11-04T05:39:13.334Z,9.23
2022-11-04T05:41:40.666Z,9.30
2022-11-04T05:44:09.587Z,7.20
2022-11-04T05:46:36.977Z,8.75
2022-11-04T05:49:04.887Z,9.55
2022-11-04T05:51:32.346Z,8.82
2022-11-04T05:53:59.591Z,9.23
2022-11-04T05:56:26.921Z,8.80
2022-11-04T05:58:55.080Z,8.48
2022-11-04T06:01:33.307Z,9.02
2022-11-04T06:04:01.549Z,8.60
2022-11-04T06:06:30.262Z,8.93
2022-11-04T06:08:58.116Z,8.60
2022-11-04T06:11:26.198Z,7.88
2022-11-04T06:13:55.004Z,9.20
2022-11-04T06:16:22.609Z,8.18
2022-11-04T06:18:49.985Z,8.60
2022-11-04T06:21:18.986Z,7.53
2022-11-04T06:23:46.285Z,8.15
2022-11-04T06:26:14.129Z,8.63
2022-11-04T06:28:41.413Z,8.40
2022-11-04T06:31:09.828Z,9.02
2022-11-04T06:33:37.363Z,7.57
2022-11-04T06:36:05.929Z,7.63
2022-11-04T06:38:34.317Z,7.38
2022-11-04T06:41:01.635Z,7.97
2022-11-04T06:43:28.881Z,7.50
2022-11-04T06:45:56.684Z,6.83
2022-11-04T06:48:23.988Z,6.95
2022-11-04T06:50:51.634Z,6.63
2022-11-04T06:53:18.885Z,6.68
2022-11-04T06:55:46.285Z,7.00
2022-11-04T06:58:13.701Z,6.70
2022-11-04T07:00:40.983Z,7.30
2022-11-04T07:03:08.463Z,7.28
2022-11-04T07:05:36.244Z,7.03
2022-11-04T07:08:03.507Z,7.00
2022-11-04T07:10:30.743Z,6.63
2022-11-04T07:12:57.967Z,6.50
2022-11-04T07:15:27.599Z,7.10
2022-11-04T07:17:54.909Z,6.93
2022-11-04T07:20:22.158Z,7.13
2022-11-04T07:22:49.450Z,6.47
2022-11-04T07:25:16.689Z,6.38
2022-11-04T07:27:43.952Z,6.82
2022-11-04T07:30:11.497Z,6.47
2022-11-04T07:32:38.751Z,6.75
2022-11-04T07:35:06.265Z,6.03
2022-11-04T07:37:33.920Z,6.20
2022-11-04T07:40:01.235Z,6.10
2022-11-04T07:42:28.545Z,6.10
2022-11-04T07:44:56.667Z,5.80
2022-11-04T07:47:25.500Z,6.10
2022-11-04T07:49:52.896Z,6.88
2022-11-04T07:52:20.208Z,6.22
2022-11-04T07:54:47.457Z,5.20
2022-11-04T07:57:14.817Z,5.65
2022-11-04T07:59:42.111Z,5.70
2022-11-04T08:02:11.085Z,5.25
2022-11-04T08:04:38.502Z,6.45
2022-11-04T08:07:08.310Z,5.07
2022-11-04T08:09:36.696Z,5.40
2022-11-04T08:12:05.336Z,5.17
2022-11-04T08:14:32.737Z,5.00
2022-11-04T08:17:00.143Z,5.10
2022-11-04T08:19:27.653Z,4.95
2022-11-04T08:21:54.994Z,5.88
2022-11-04T08:24:22.287Z,4.90
2022-11-04T08:26:49.593Z,5.30
2022-11-04T08:29:17.084Z,6.95
2022-11-04T08:31:44.329Z,6.22
2022-11-04T08:34:11.722Z,5.72
2022-11-04T08:36:40.968Z,5.63
2022-11-04T08:39:11.214Z,4.38
2022-11-04T08:41:41.068Z,5.32
2022-11-04T08:44:08.877Z,4.00
2022-11-04T08:46:38.120Z,4.97
2022-11-04T08:49:09.873Z,4.00
2022-11-04T08:51:39.564Z,3.80
2022-11-04T08:54:06.949Z,3.97
2022-11-04T08:56:36.259Z,3.00
2022-11-04T08:59:04.398Z,4.05
2022-11-04T09:01:35.896Z,3.70
2022-11-04T09:04:03.918Z,3.05
2022-11-04T09:06:33.047Z,4.10
2022-11-04T09:09:04.455Z,3.53
2022-11-04T09:11:37.317Z,3.70
2022-11-04T09:14:05.606Z,3.70
2022-11-04T09:16:33.572Z,2.50
2022-11-04T09:19:01.008Z,2.58
2022-11-04T09:21:28.460Z,2.80
2022-11-04T09:23:56.067Z,3.75
2022-11-04T09:26:23.999Z,3.40
2022-11-04T09:28:58.235Z,3.20
2022-11-04T09:31:26.289Z,3.33
2022-11-04T09:33:54.981Z,3.35
2022-11-04T09:36:22.368Z,3.50
2022-11-04T09:38:49.746Z,3.17
2022-11-04T09:41:36.034Z,3.70
2022-11-04T09:44:10.663Z,4.38
2022-11-04T09:46:38.461Z,4.28
2022-11-04T09:49:07.740Z,4.10
2022-11-04T09:54:24.227Z,5.22
2022-11-04T09:56:53.048Z,5.20
2022-11-04T09:59:22.481Z,4.25
2022-11-04T10:02:05.088Z,5.32
2022-11-04T10:04:45.615Z,3.80
2022-11-04T10:07:31.611Z,3.60
2022-11-04T10:09:58.856Z,4.28
2022-11-04T10:12:52.578Z,3.75
2022-11-04T10:15:40.217Z,4.13
2022-11-04T10:18:10.509Z,3.90
2022-11-04T10:20:56.615Z,3.88
2022-11-04T10:23:29.562Z,4.43
2022-11-04T10:26:02.281Z,3.90
2022-11-04T10:28:40.933Z,4.32
2022-11-04T10:31:09.049Z,3.83
2022-11-04T10:33:38.526Z,4.50
2022-11-04T10:36:11.245Z,4.30
2022-11-04T10:38:44.450Z,4.00
2022-11-04T10:41:21.573Z,3.78
2022-11-04T10:43:49.852Z,4.77
2022-11-04T10:46:40.999Z,4.10
2022-11-04T10:49:26.171Z,5.00
2022-11-04T10:51:54.745Z,4.07
2022-11-04T10:54:22.199Z,4.72
2022-11-04T10:56:53.845Z,4.30
2022-11-04T10:59:24.857Z,4.20
2022-11-04T11:01:54.355Z,4.43
2022-11-04T11:04:33.548Z,4.40
2022-11-04T11:07:02.168Z,4.75
2022-11-04T11:09:30.967Z,4.70
2022-11-04T11:12:00.950Z,4.65
2022-11-04T11:14:31.207Z,5.50
2022-11-04T11:17:15.045Z,5.47
2022-11-04T11:19:53.337Z,5.30
2022-11-04T11:22:28.948Z,4.80
2022-11-04T11:25:12.353Z,5.05
2022-11-04T11:27:39.892Z,5.13
2022-11-04T11:30:07.382Z,4.70
2022-11-04T11:32:36.045Z,4.50
2022-11-04T11:35:07.695Z,4.50
2022-11-04T11:37:40.692Z,4.43
2022-11-04T11:40:24.003Z,4.40
2022-11-04T11:42:51.293Z,4.68
2022-11-04T11:45:20.044Z,4.05
2022-11-04T11:47:47.842Z,4.23
2022-11-04T11:50:31.156Z,4.30
2022-11-04T11:53:14.000Z,4.18
2022-11-04T11:55:43.976Z,4.30
2022-11-04T12:01:24.138Z,3.70
2022-11-04T12:10:07.036Z,3.33
2022-11-04T12:12:40.681Z,2.92
2022-11-04T12:15:12.588Z,2.53
2022-11-04T12:17:51.234Z,2.60
2022-11-04T12:20:18.897Z,2.92
2022-11-04T12:22:52.455Z,3.08
2022-11-04T12:25:25.130Z,3.40
2022-11-04T12:27:55.374Z,3.83
2022-11-04T12:30:31.199Z,3.67
2022-11-04T12:33:01.220Z,3.65
2022-11-04T12:35:33.495Z,3.20
2022-11-04T12:38:16.047Z,4.10
2022-11-04T12:41:27.825Z,3.57
2022-11-04T12:43:52.225Z,4.20
2022-11-04T12:46:28.099Z,3.90
2022-11-04T12:49:14.122Z,4.00
2022-11-04T12:51:53.664Z,3.70
2022-11-04T12:54:39.894Z,3.10
2022-11-04T12:57:25.927Z,3.45
2022-11-04T12:59:53.159Z,2.28
2022-11-04T13:02:24.479Z,1.20
2022-11-04T13:04:57.910Z,1.20
2022-11-04T13:07:30.387Z,0.80
2022-11-04T13:09:59.645Z,1.25
2022-11-04T13:12:30.517Z,1.17
2022-11-04T13:15:01.251Z,0.88
2022-11-04T13:17:39.117Z,1.15
2022-11-04T13:20:14.509Z,0.97
2022-11-04T13:22:47.202Z,1.02
2022-11-04T13:25:15.143Z,1.10
2022-11-04T13:27:45.617Z,1.00
2022-11-04T13:30:16.000Z,1.25
2022-11-04T13:32:50.217Z,1.43
2022-11-04T13:35:24.032Z,1.30
2022-11-04T13:38:03.717Z,1.20
2022-11-04T13:40:57.055Z,1.30
2022-11-04T13:43:41.765Z,1.77
2022-11-04T13:46:09.032Z,0.90
2022-11-04T13:48:38.144Z,1.30
2022-11-04T13:51:12.483Z,1.65
2022-11-04T13:53:48.725Z,1.73
2022-11-04T13:56:36.307Z,1.10
2022-11-04T13:59:29.328Z,0.80
2022-11-04T14:02:12.248Z,1.10
2022-11-04T14:04:40.503Z,1.40
2022-11-04T14:07:10.788Z,1.58
2022-11-04T14:09:44.164Z,1.88
2022-11-04T14:12:11.497Z,1.40
2022-11-04T14:14:39.486Z,1.60
2022-11-04T14:17:26.787Z,1.63
2022-11-04T14:19:57.274Z,1.30
2022-11-04T14:22:34.966Z,1.52
2022-11-04T14:25:04.393Z,1.17
2022-11-04T14:27:36.287Z,1.50
2022-11-04T14:30:03.806Z,1.40
2022-11-04T14:32:36.749Z,1.60
2022-11-04T14:35:06.984Z,2.30
2022-11-04T14:37:35.517Z,1.90
2022-11-04T14:40:05.107Z,1.70
2022-11-04T14:42:44.001Z,1.60
2022-11-04T14:45:16.257Z,1.92
2022-11-04T14:47:43.709Z,1.60
2022-11-04T14:50:17.577Z,1.60
2022-11-04T14:52:44.783Z,2.10
2022-11-04T14:55:12.037Z,2.00
2022-11-04T14:57:44.020Z,1.75
2022-11-04T15:00:23.758Z,2.42
2022-11-04T15:03:03.032Z,1.77
2022-11-04T15:05:33.453Z,4.00
2022-11-04T15:08:00.682Z,1.92
2022-11-04T15:10:29.487Z,1.60
2022-11-04T15:13:01.830Z,1.48
2022-11-04T15:15:29.071Z,1.57
2022-11-04T15:18:05.456Z,1.45
2022-11-04T15:20:33.419Z,2.13
2022-11-04T15:23:02.352Z,1.77
2022-11-04T15:25:29.704Z,1.92
2022-11-04T15:27:57.298Z,1.10
2022-11-04T15:30:26.503Z,2.58
2022-11-04T15:32:58.388Z,3.10
2022-11-04T15:35:25.943Z,1.48
2022-11-04T15:37:54.458Z,1.40
2022-11-04T15:40:22.322Z,1.40
2022-11-04T15:42:50.311Z,0.98
2022-11-04T15:45:26.446Z,1.25
2022-11-04T15:48:12.257Z,1.15
2022-11-04T15:50:39.588Z,1.20
2022-11-04T15:53:09.949Z,1.20
2022-11-04T15:55:38.574Z,1.33
2022-11-04T15:58:06.053Z,1.50
2022-11-04T16:00:34.878Z,1.30
2022-11-04T16:03:03.045Z,1.17
2022-11-04T16:05:35.696Z,1.47
2022-11-04T16:08:23.194Z,1.23
2022-11-04T16:10:50.900Z,1.50
2022-11-04T16:13:18.132Z,2.03
2022-11-04T16:15:53.974Z,3.35
2022-11-04T16:18:30.896Z,2.43
2022-11-04T16:20:58.533Z,2.60
2022-11-04T16:23:28.179Z,2.35
2022-11-04T16:25:57.999Z,2.25
2022-11-04T16:28:25.316Z,3.28
2022-11-04T16:30:59.294Z,3.10
2022-11-04T16:33:26.568Z,3.00
2022-11-04T16:35:53.952Z,4.18
2022-11-04T16:38:21.269Z,4.38
2022-11-04T16:40:49.231Z,5.95
2022-11-04T16:43:18.753Z,2.40
2022-11-04T16:45:53.335Z,2.42
2022-11-04T16:48:23.752Z,2.75
2022-11-04T16:50:50.984Z,2.03
2022-11-04T16:53:18.272Z,2.58
2022-11-04T16:55:46.124Z,2.73
2022-11-04T16:58:19.947Z,2.35
2022-11-04T17:00:47.305Z,2.70
2022-11-04T17:03:21.715Z,2.40
2022-11-04T17:05:54.961Z,2.30
2022-11-04T17:08:22.225Z,2.47
2022-11-04T17:10:49.552Z,1.90
2022-11-04T17:13:16.816Z,3.08
2022-11-04T17:15:44.070Z,2.40
2022-11-04T17:18:16.250Z,2.60
2022-11-04T17:20:44.889Z,2.40
2022-11-04T17:23:13.664Z,2.38
2022-11-04T17:25:41.209Z,3.10
2022-11-04T17:28:08.497Z,3.55
2022-11-04T17:30:36.024Z,4.35
2022-11-04T17:33:06.532Z,3.80
2022-11-04T17:35:35.195Z,3.20
2022-11-04T17:38:02.412Z,3.30
2022-11-04T17:40:29.802Z,3.47
2022-11-04T17:43:16.029Z,4.28
2022-11-04T17:45:44.017Z,3.70
2022-11-04T17:48:11.552Z,2.90
2022-11-04T17:50:39.855Z,3.00
2022-11-04T17:53:07.419Z,3.05
2022-11-04T17:55:39.905Z,3.78
2022-11-04T17:58:07.173Z,3.83
2022-11-04T18:00:34.485Z,3.45
2022-11-04T18:03:01.772Z,3.60
2022-11-04T18:05:29.081Z,4.72
2022-11-04T18:07:58.323Z,6.40
2022-11-04T18:10:25.634Z,4.23
2022-11-04T18:12:52.928Z,4.82
2022-11-04T18:15:20.185Z,4.22
2022-11-04T18:17:49.902Z,7.47
2022-11-04T18:20:17.236Z,5.85
2022-11-04T18:22:44.935Z,4.67
2022-11-04T18:25:12.400Z,6.28
2022-11-04T18:27:39.716Z,5.22
2022-11-04T18:30:07.354Z,4.03
2022-11-04T18:32:34.641Z,3.70
2022-11-04T18:35:01.937Z,2.90
2022-11-04T18:37:29.835Z,3.13
2022-11-04T18:39:57.143Z,3.63
2022-11-04T18:42:24.413Z,3.25
2022-11-04T18:44:51.785Z,3.10
2022-11-04T18:47:20.223Z,3.47
2022-11-04T18:49:48.052Z,3.53
2022-11-04T18:52:15.236Z,3.47
2022-11-04T18:54:46.148Z,3.72
2022-11-04T18:57:13.452Z,3.78
2022-11-04T18:59:40.714Z,3.40
2022-11-04T19:02:08.081Z,3.65
2022-11-04T19:04:35.403Z,4.10
2022-11-04T19:07:04.315Z,4.55
2022-11-04T19:09:45.979Z,4.03
2022-11-04T19:12:32.739Z,4.77
2022-11-04T19:15:00.016Z,4.63
2022-11-04T19:17:27.311Z,6.35
2022-11-04T19:19:54.619Z,6.28
2022-11-04T19:22:21.903Z,4.70
2022-11-04T19:24:49.223Z,4.20
2022-11-04T19:27:19.538Z,4.38
2022-11-04T19:29:46.822Z,5.07
2022-11-04T19:32:14.651Z,4.72
2022-11-04T19:34:42.489Z,7.97
2022-11-04T19:37:10.729Z,10.70
2022-11-04T19:39:38.327Z,6.35
2022-11-04T19:42:24.327Z,7.53
2022-11-04T19:44:51.627Z,6.80
2022-11-04T19:47:18.947Z,6.80
2022-11-04T19:49:46.306Z,5.90
2022-11-04T19:52:13.766Z,6.30
2022-11-04T19:54:41.149Z,5.40
2022-11-04T19:57:08.877Z,5.28
2022-11-04T19:59:36.208Z,5.45
2022-11-04T20:02:03.648Z,6.53
2022-11-04T20:04:31.030Z,6.53
2022-11-04T20:06:58.343Z,9.15
2022-11-04T20:09:26.045Z,7.50
2022-11-04T20:12:11.812Z,5.50
2022-11-04T20:14:39.085Z,4.97
2022-11-04T20:17:07.147Z,5.90
2022-11-04T20:19:35.100Z,6.70
2022-11-04T20:22:02.895Z,7.35
2022-11-04T20:24:30.330Z,9.32
2022-11-04T20:26:57.612Z,10.60
2022-11-04T20:29:24.854Z,8.88
2022-11-04T20:31:52.112Z,6.80
2022-11-04T20:34:19.567Z,9.63
2022-11-04T20:36:46.804Z,6.18
2022-11-04T20:39:15.253Z,4.13
2022-11-04T20:41:42.871Z,4.93
2022-11-04T20:44:11.334Z,5.65
2022-11-04T20:46:38.588Z,5.75
2022-11-04T20:49:06.052Z,5.90
2022-11-04T20:51:34.407Z,4.00
2022-11-04T20:54:02.737Z,5.07
2022-11-04T20:56:31.348Z,4.72
2022-11-04T20:58:59.959Z,5.53
2022-11-04T21:01:32.510Z,9.60
2022-11-04T21:04:07.670Z,6.20
2022-11-04T21:06:38.023Z,5.68
2022-11-04T21:09:06.071Z,5.28
2022-11-04T21:11:35.479Z,4.35
2022-11-04T21:14:03.642Z,5.25
2022-11-04T21:16:30.868Z,7.53
2022-11-04T21:18:58.187Z,6.43
2022-11-04T21:21:27.853Z,6.22
2022-11-04T21:23:59.116Z,5.43
2022-11-04T21:26:27.340Z,7.22
2022-11-04T21:28:56.590Z,5.43
2022-11-04T21:31:24.588Z,5.47
2022-11-04T21:33:52.510Z,4.97
2022-11-04T21:36:20.089Z,6.40
2022-11-04T21:38:47.428Z,6.45
2022-11-04T21:41:15.667Z,5.17
2022-11-04T21:43:42.863Z,5.57
2022-11-04T21:46:13.936Z,3.92
2022-11-04T21:48:42.364Z,2.80
2022-11-04T21:51:11.507Z,3.60
2022-11-04T21:53:39.076Z,4.03
2022-11-04T21:56:10.391Z,2.40
2022-11-04T21:58:37.854Z,2.20
2022-11-04T22:01:05.819Z,1.63
2022-11-04T22:03:33.290Z,2.22
2022-11-04T22:06:05.112Z,1.97
2022-11-04T22:08:32.909Z,1.98
2022-11-04T22:11:11.094Z,2.15
2022-11-04T22:13:38.534Z,2.00
2022-11-04T22:16:19.369Z,2.33
2022-11-04T22:18:47.150Z,2.17
2022-11-04T22:21:15.668Z,3.03
2022-11-04T22:23:43.088Z,2.88
2022-11-04T22:26:17.919Z,2.50
2022-11-04T22:28:45.649Z,3.50
2022-11-04T22:31:18.190Z,2.97
2022-11-04T22:33:45.826Z,2.58
2022-11-04T22:36:13.615Z,2.20
2022-11-04T22:38:41.897Z,1.75
2022-11-04T22:41:13.372Z,3.60
2022-11-04T22:43:40.689Z,2.50
2022-11-04T22:46:10.027Z,2.05
2022-11-04T22:48:38.052Z,2.17
2022-11-04T22:51:05.493Z,2.50
2022-11-04T22:53:32.748Z,2.47
2022-11-04T22:56:01.141Z,2.47
2022-11-04T22:58:28.695Z,2.30
2022-11-04T23:00:57.626Z,3.70
2022-11-04T23:03:25.271Z,3.00
2022-11-04T23:05:56.420Z,2.40
2022-11-04T23:08:24.134Z,2.60
2022-11-04T23:11:10.356Z,2.80
2022-11-04T23:13:56.146Z,2.70
2022-11-04T23:16:42.915Z,2.25
2022-11-04T23:19:10.117Z,2.83
2022-11-04T23:21:55.956Z,2.30
2022-11-04T23:24:41.791Z,2.45
2022-11-04T23:27:09.427Z,2.65
2022-11-04T23:29:55.224Z,2.67
2022-11-04T23:32:27.123Z,2.70
2022-11-04T23:35:13.301Z,2.33
2022-11-04T23:37:40.530Z,2.70
2022-11-04T23:40:08.333Z,3.10
2022-11-04T23:42:35.695Z,3.40
2022-11-04T23:45:21.586Z,3.35
2022-11-04T23:48:07.580Z,3.73
2022-11-04T23:50:53.965Z,3.10
2022-11-04T23:53:40.898Z,3.65
2022-11-04T23:56:28.905Z,2.90
2022-11-04T23:59:14.845Z,3.28
